sensor_id;sensor_type;location;lat;lon;timestamp;P1;durP1;ratioP1;P2;durP2;ratioP2
8058;SDS011;4072;42.668;23.396;2022-11-11T00:01:19;85.83;;;53.43;;
8058;SDS011;4072;42.668;23.396;2022-11-11T00:03:48;71.40;;;48.83;;
8058;SDS011;4072;42.668;23.396;2022-11-11T00:06:21;67.33;;;43.00;;
8058;SDS011;4072;42.668;23.396;2022-11-11T00:08:49;68.00;;;44.27;;
8058;SDS011;4072;42.668;23.396;2022-11-11T00:11:17;74.53;;;48.37;;
8058;SDS011;4072;42.668;23.396;2022-11-11T00:13:46;80.30;;;51.17;;
8058;SDS011;4072;42.668;23.396;2022-11-11T00:16:15;81.80;;;49.90;;
8058;SDS011;4072;42.668;23.396;2022-11-11T00:18:46;70.50;;;48.73;;
8058;SDS011;4072;42.668;23.396;2022-11-11T00:21:32;66.30;;;46.63;;
8058;SDS011;4072;42.668;23.396;2022-11-11T00:24:19;76.93;;;51.43;;
8058;SDS011;4072;42.668;23.396;2022-11-11T00:27:06;85.27;;;52.97;;
8058;SDS011;4072;42.668;23.396;2022-11-11T00:29:35;82.87;;;50.67;;
8058;SDS011;4072;42.668;23.396;2022-11-11T00:32:04;72.80;;;50.43;;
8058;SDS011;4072;42.668;23.396;2022-11-11T00:34:56;73.23;;;47.10;;
8058;SDS011;4072;42.668;23.396;2022-11-11T00:37:43;70.67;;;47.77;;
8058;SDS011;4072;42.668;23.396;2022-11-11T00:40:14;72.77;;;46.37;;
8058;SDS011;4072;42.668;23.396;2022-11-11T00:42:43;70.90;;;46.83;;
8058;SDS011;4072;42.668;23.396;2022-11-11T00:45:11;79.33;;;49.40;;
8058;SDS011;4072;42.668;23.396;2022-11-11T00:47:39;75.47;;;49.70;;
8058;SDS011;4072;42.668;23.396;2022-11-11T00:50:26;74.93;;;48.00;;
8058;SDS011;4072;42.668;23.396;2022-11-11T00:53:14;65.30;;;45.83;;
8058;SDS011;4072;42.668;23.396;2022-11-11T00:55:50;83.07;;;50.53;;
8058;SDS011;4072;42.668;23.396;2022-11-11T00:58:18;75.13;;;49.57;;
8058;SDS011;4072;42.668;23.396;2022-11-11T01:00:49;72.30;;;46.77;;
8058;SDS011;4072;42.668;23.396;2022-11-11T01:03:19;70.87;;;46.23;;
8058;SDS011;4072;42.668;23.396;2022-11-11T01:05:49;65.70;;;48.63;;
8058;SDS011;4072;42.668;23.396;2022-11-11T01:08:18;78.77;;;46.83;;
8058;SDS011;4072;42.668;23.396;2022-11-11T01:10:50;69.23;;;46.10;;
8058;SDS011;4072;42.668;23.396;2022-11-11T01:13:19;70.93;;;46.90;;
8058;SDS011;4072;42.668;23.396;2022-11-11T01:15:50;69.93;;;47.47;;
8058;SDS011;4072;42.668;23.396;2022-11-11T01:18:20;67.07;;;44.97;;
8058;SDS011;4072;42.668;23.396;2022-11-11T01:20:59;68.27;;;43.43;;
8058;SDS011;4072;42.668;23.396;2022-11-11T01:23:31;63.30;;;42.10;;
8058;SDS011;4072;42.668;23.396;2022-11-11T01:26:01;69.37;;;43.30;;
8058;SDS011;4072;42.668;23.396;2022-11-11T01:28:31;68.73;;;43.50;;
8058;SDS011;4072;42.668;23.396;2022-11-11T01:31:00;66.73;;;44.97;;
8058;SDS011;4072;42.668;23.396;2022-11-11T01:33:29;60.83;;;40.77;;
8058;SDS011;4072;42.668;23.396;2022-11-11T01:36:04;68.73;;;44.97;;
8058;SDS011;4072;42.668;23.396;2022-11-11T01:38:36;64.17;;;42.43;;
8058;SDS011;4072;42.668;23.396;2022-11-11T01:41:05;69.57;;;43.27;;
8058;SDS011;4072;42.668;23.396;2022-11-11T01:43:48;65.80;;;41.73;;
8058;SDS011;4072;42.668;23.396;2022-11-11T01:46:22;61.23;;;43.60;;
8058;SDS011;4072;42.668;23.396;2022-11-11T01:48:56;67.63;;;45.13;;
8058;SDS011;4072;42.668;23.396;2022-11-11T01:51:48;62.73;;;42.73;;
8058;SDS011;4072;42.668;23.396;2022-11-11T01:54:23;67.57;;;41.53;;
8058;SDS011;4072;42.668;23.396;2022-11-11T01:57:00;64.77;;;41.37;;
8058;SDS011;4072;42.668;23.396;2022-11-11T01:59:31;59.77;;;41.93;;
8058;SDS011;4072;42.668;23.396;2022-11-11T02:02:04;66.60;;;45.20;;
8058;SDS011;4072;42.668;23.396;2022-11-11T02:04:38;67.80;;;44.10;;
8058;SDS011;4072;42.668;23.396;2022-11-11T02:07:26;62.40;;;44.33;;
8058;SDS011;4072;42.668;23.396;2022-11-11T02:09:54;67.87;;;44.67;;
8058;SDS011;4072;42.668;23.396;2022-11-11T02:12:24;73.40;;;45.27;;
8058;SDS011;4072;42.668;23.396;2022-11-11T02:15:11;68.43;;;43.40;;
8058;SDS011;4072;42.668;23.396;2022-11-11T02:17:40;65.83;;;43.43;;
8058;SDS011;4072;42.668;23.396;2022-11-11T02:20:09;76.13;;;45.10;;
8058;SDS011;4072;42.668;23.396;2022-11-11T02:22:46;67.17;;;46.00;;
8058;SDS011;4072;42.668;23.396;2022-11-11T02:25:19;77.20;;;47.17;;
8058;SDS011;4072;42.668;23.396;2022-11-11T02:27:50;67.23;;;45.73;;
8058;SDS011;4072;42.668;23.396;2022-11-11T02:30:20;87.20;;;52.70;;
8058;SDS011;4072;42.668;23.396;2022-11-11T02:32:49;82.10;;;51.33;;
8058;SDS011;4072;42.668;23.396;2022-11-11T02:35:20;84.83;;;54.30;;
8058;SDS011;4072;42.668;23.396;2022-11-11T02:37:50;82.00;;;49.73;;
8058;SDS011;4072;42.668;23.396;2022-11-11T02:40:22;74.40;;;48.07;;
8058;SDS011;4072;42.668;23.396;2022-11-11T02:42:52;75.87;;;48.80;;
8058;SDS011;4072;42.668;23.396;2022-11-11T02:45:21;72.80;;;48.60;;
8058;SDS011;4072;42.668;23.396;2022-11-11T02:47:49;75.73;;;47.80;;
8058;SDS011;4072;42.668;23.396;2022-11-11T02:50:18;72.40;;;48.87;;
8058;SDS011;4072;42.668;23.396;2022-11-11T02:52:46;75.23;;;49.80;;
8058;SDS011;4072;42.668;23.396;2022-11-11T02:55:15;79.60;;;51.57;;
8058;SDS011;4072;42.668;23.396;2022-11-11T02:57:45;71.00;;;45.03;;
8058;SDS011;4072;42.668;23.396;2022-11-11T03:00:14;69.30;;;41.10;;
8058;SDS011;4072;42.668;23.396;2022-11-11T03:02:43;58.50;;;39.87;;
8058;SDS011;4072;42.668;23.396;2022-11-11T03:05:12;66.87;;;43.57;;
8058;SDS011;4072;42.668;23.396;2022-11-11T03:07:40;68.13;;;43.77;;
8058;SDS011;4072;42.668;23.396;2022-11-11T03:10:09;61.70;;;44.27;;
8058;SDS011;4072;42.668;23.396;2022-11-11T03:12:37;72.20;;;46.00;;
8058;SDS011;4072;42.668;23.396;2022-11-11T03:15:07;65.00;;;43.20;;
8058;SDS011;4072;42.668;23.396;2022-11-11T03:17:37;67.57;;;43.53;;
8058;SDS011;4072;42.668;23.396;2022-11-11T03:20:07;68.43;;;44.47;;
8058;SDS011;4072;42.668;23.396;2022-11-11T03:22:58;56.67;;;39.43;;
8058;SDS011;4072;42.668;23.396;2022-11-11T03:25:30;64.97;;;40.20;;
8058;SDS011;4072;42.668;23.396;2022-11-11T03:28:06;87.93;;;55.73;;
8058;SDS011;4072;42.668;23.396;2022-11-11T03:30:38;135.53;;;90.97;;
8058;SDS011;4072;42.668;23.396;2022-11-11T03:33:07;85.93;;;55.00;;
8058;SDS011;4072;42.668;23.396;2022-11-11T03:35:36;71.33;;;44.63;;
8058;SDS011;4072;42.668;23.396;2022-11-11T03:38:04;91.40;;;58.27;;
8058;SDS011;4072;42.668;23.396;2022-11-11T03:40:49;93.10;;;59.13;;
8058;SDS011;4072;42.668;23.396;2022-11-11T03:43:19;76.27;;;52.27;;
8058;SDS011;4072;42.668;23.396;2022-11-11T03:45:51;70.03;;;47.33;;
8058;SDS011;4072;42.668;23.396;2022-11-11T03:48:20;72.37;;;46.73;;
8058;SDS011;4072;42.668;23.396;2022-11-11T03:50:48;69.57;;;43.80;;
8058;SDS011;4072;42.668;23.396;2022-11-11T03:53:17;67.83;;;43.30;;
8058;SDS011;4072;42.668;23.396;2022-11-11T03:55:48;70.40;;;43.37;;
8058;SDS011;4072;42.668;23.396;2022-11-11T03:58:16;60.13;;;42.20;;
8058;SDS011;4072;42.668;23.396;2022-11-11T04:00:45;64.73;;;40.40;;
8058;SDS011;4072;42.668;23.396;2022-11-11T04:03:15;62.30;;;41.23;;
8058;SDS011;4072;42.668;23.396;2022-11-11T04:06:02;61.30;;;41.50;;
8058;SDS011;4072;42.668;23.396;2022-11-11T04:08:48;61.43;;;39.60;;
8058;SDS011;4072;42.668;23.396;2022-11-11T04:11:35;54.93;;;35.30;;
8058;SDS011;4072;42.668;23.396;2022-11-11T04:14:06;59.00;;;37.73;;
8058;SDS011;4072;42.668;23.396;2022-11-11T04:16:53;57.00;;;38.73;;
8058;SDS011;4072;42.668;23.396;2022-11-11T04:19:23;54.87;;;37.40;;
8058;SDS011;4072;42.668;23.396;2022-11-11T04:22:09;54.53;;;37.00;;
8058;SDS011;4072;42.668;23.396;2022-11-11T04:24:37;58.23;;;36.93;;
8058;SDS011;4072;42.668;23.396;2022-11-11T04:27:25;55.70;;;37.43;;
8058;SDS011;4072;42.668;23.396;2022-11-11T04:29:53;49.27;;;34.20;;
8058;SDS011;4072;42.668;23.396;2022-11-11T04:32:21;54.83;;;35.60;;
8058;SDS011;4072;42.668;23.396;2022-11-11T04:35:11;46.77;;;34.23;;
8058;SDS011;4072;42.668;23.396;2022-11-11T04:37:44;50.27;;;34.23;;
8058;SDS011;4072;42.668;23.396;2022-11-11T04:40:15;53.07;;;33.70;;
8058;SDS011;4072;42.668;23.396;2022-11-11T04:43:01;49.80;;;33.53;;
8058;SDS011;4072;42.668;23.396;2022-11-11T04:45:30;47.00;;;32.67;;
8058;SDS011;4072;42.668;23.396;2022-11-11T04:47:58;51.30;;;32.97;;
8058;SDS011;4072;42.668;23.396;2022-11-11T04:50:29;47.40;;;33.90;;
8058;SDS011;4072;42.668;23.396;2022-11-11T04:52:59;49.77;;;32.70;;
8058;SDS011;4072;42.668;23.396;2022-11-11T04:55:28;50.10;;;34.07;;
8058;SDS011;4072;42.668;23.396;2022-11-11T04:58:15;51.07;;;37.00;;
8058;SDS011;4072;42.668;23.396;2022-11-11T05:00:44;51.77;;;36.93;;
8058;SDS011;4072;42.668;23.396;2022-11-11T05:03:15;57.70;;;40.13;;
8058;SDS011;4072;42.668;23.396;2022-11-11T05:05:46;57.43;;;40.30;;
8058;SDS011;4072;42.668;23.396;2022-11-11T05:08:34;53.93;;;36.10;;
8058;SDS011;4072;42.668;23.396;2022-11-11T05:11:21;59.67;;;38.33;;
8058;SDS011;4072;42.668;23.396;2022-11-11T05:13:51;60.37;;;41.10;;
8058;SDS011;4072;42.668;23.396;2022-11-11T05:16:47;64.00;;;44.30;;
8058;SDS011;4072;42.668;23.396;2022-11-11T05:19:34;58.93;;;41.43;;
8058;SDS011;4072;42.668;23.396;2022-11-11T05:22:22;57.63;;;39.33;;
8058;SDS011;4072;42.668;23.396;2022-11-11T05:24:53;60.33;;;40.40;;
8058;SDS011;4072;42.668;23.396;2022-11-11T05:27:39;58.23;;;39.53;;
8058;SDS011;4072;42.668;23.396;2022-11-11T05:30:08;53.77;;;36.50;;
8058;SDS011;4072;42.668;23.396;2022-11-11T05:32:39;54.50;;;36.40;;
8058;SDS011;4072;42.668;23.396;2022-11-11T05:35:08;50.53;;;36.37;;
8058;SDS011;4072;42.668;23.396;2022-11-11T05:37:39;47.20;;;33.53;;
8058;SDS011;4072;42.668;23.396;2022-11-11T05:40:08;54.53;;;34.77;;
8058;SDS011;4072;42.668;23.396;2022-11-11T05:42:46;49.77;;;34.63;;
8058;SDS011;4072;42.668;23.396;2022-11-11T05:45:20;48.70;;;33.63;;
8058;SDS011;4072;42.668;23.396;2022-11-11T05:47:49;52.90;;;35.13;;
8058;SDS011;4072;42.668;23.396;2022-11-11T05:50:17;55.40;;;36.80;;
8058;SDS011;4072;42.668;23.396;2022-11-11T05:52:48;58.40;;;36.57;;
8058;SDS011;4072;42.668;23.396;2022-11-11T05:55:16;50.30;;;32.70;;
8058;SDS011;4072;42.668;23.396;2022-11-11T05:57:45;48.80;;;35.53;;
8058;SDS011;4072;42.668;23.396;2022-11-11T06:00:13;51.93;;;34.70;;
8058;SDS011;4072;42.668;23.396;2022-11-11T06:02:41;56.43;;;35.30;;
8058;SDS011;4072;42.668;23.396;2022-11-11T06:05:10;50.23;;;32.43;;
8058;SDS011;4072;42.668;23.396;2022-11-11T06:07:38;49.40;;;34.57;;
8058;SDS011;4072;42.668;23.396;2022-11-11T06:10:10;46.73;;;33.23;;
8058;SDS011;4072;42.668;23.396;2022-11-11T06:12:57;52.53;;;33.70;;
8058;SDS011;4072;42.668;23.396;2022-11-11T06:15:38;45.63;;;34.30;;
8058;SDS011;4072;42.668;23.396;2022-11-11T06:18:07;48.03;;;33.37;;
8058;SDS011;4072;42.668;23.396;2022-11-11T06:20:35;50.73;;;35.63;;
8058;SDS011;4072;42.668;23.396;2022-11-11T06:23:04;57.60;;;36.67;;
8058;SDS011;4072;42.668;23.396;2022-11-11T06:25:34;53.20;;;34.47;;
8058;SDS011;4072;42.668;23.396;2022-11-11T06:28:19;53.00;;;33.47;;
8058;SDS011;4072;42.668;23.396;2022-11-11T06:30:48;49.53;;;35.07;;
8058;SDS011;4072;42.668;23.396;2022-11-11T06:33:17;50.20;;;32.83;;
8058;SDS011;4072;42.668;23.396;2022-11-11T06:35:45;50.37;;;33.47;;
8058;SDS011;4072;42.668;23.396;2022-11-11T06:38:15;46.37;;;31.37;;
8058;SDS011;4072;42.668;23.396;2022-11-11T06:40:45;56.57;;;38.47;;
8058;SDS011;4072;42.668;23.396;2022-11-11T06:43:15;59.07;;;42.23;;
8058;SDS011;4072;42.668;23.396;2022-11-11T06:45:43;64.43;;;45.50;;
8058;SDS011;4072;42.668;23.396;2022-11-11T06:48:12;49.60;;;34.73;;
8058;SDS011;4072;42.668;23.396;2022-11-11T06:50:40;50.00;;;33.20;;
8058;SDS011;4072;42.668;23.396;2022-11-11T06:53:10;37.83;;;27.77;;
8058;SDS011;4072;42.668;23.396;2022-11-11T06:55:42;34.00;;;24.50;;
8058;SDS011;4072;42.668;23.396;2022-11-11T06:58:12;39.93;;;27.73;;
8058;SDS011;4072;42.668;23.396;2022-11-11T07:00:43;25.40;;;19.67;;
8058;SDS011;4072;42.668;23.396;2022-11-11T07:03:13;29.47;;;19.30;;
8058;SDS011;4072;42.668;23.396;2022-11-11T07:05:50;24.60;;;17.90;;
8058;SDS011;4072;42.668;23.396;2022-11-11T07:08:24;22.37;;;16.27;;
8058;SDS011;4072;42.668;23.396;2022-11-11T07:10:53;23.10;;;18.03;;
8058;SDS011;4072;42.668;23.396;2022-11-11T07:13:25;27.17;;;19.37;;
8058;SDS011;4072;42.668;23.396;2022-11-11T07:15:53;26.13;;;18.27;;
8058;SDS011;4072;42.668;23.396;2022-11-11T07:18:21;26.83;;;18.17;;
8058;SDS011;4072;42.668;23.396;2022-11-11T07:20:50;23.43;;;18.30;;
8058;SDS011;4072;42.668;23.396;2022-11-11T07:23:18;22.93;;;15.87;;
8058;SDS011;4072;42.668;23.396;2022-11-11T07:25:50;24.47;;;16.60;;
8058;SDS011;4072;42.668;23.396;2022-11-11T07:28:19;21.00;;;16.27;;
8058;SDS011;4072;42.668;23.396;2022-11-11T07:30:49;26.10;;;17.80;;
8058;SDS011;4072;42.668;23.396;2022-11-11T07:33:17;26.10;;;16.70;;
8058;SDS011;4072;42.668;23.396;2022-11-11T07:35:50;24.90;;;17.73;;
8058;SDS011;4072;42.668;23.396;2022-11-11T07:38:18;25.80;;;17.20;;
8058;SDS011;4072;42.668;23.396;2022-11-11T07:40:47;25.60;;;17.60;;
8058;SDS011;4072;42.668;23.396;2022-11-11T07:43:15;16.57;;;12.83;;
8058;SDS011;4072;42.668;23.396;2022-11-11T07:45:43;21.67;;;15.13;;
8058;SDS011;4072;42.668;23.396;2022-11-11T07:48:13;20.83;;;15.77;;
8058;SDS011;4072;42.668;23.396;2022-11-11T07:50:42;20.73;;;14.60;;
8058;SDS011;4072;42.668;23.396;2022-11-11T07:53:13;26.17;;;17.40;;
8058;SDS011;4072;42.668;23.396;2022-11-11T07:55:43;19.70;;;13.03;;
8058;SDS011;4072;42.668;23.396;2022-11-11T07:58:11;22.20;;;15.63;;
8058;SDS011;4072;42.668;23.396;2022-11-11T08:00:41;24.03;;;16.90;;
8058;SDS011;4072;42.668;23.396;2022-11-11T08:03:10;23.80;;;16.17;;
8058;SDS011;4072;42.668;23.396;2022-11-11T08:05:39;22.27;;;13.97;;
8058;SDS011;4072;42.668;23.396;2022-11-11T08:08:09;17.50;;;12.07;;
8058;SDS011;4072;42.668;23.396;2022-11-11T08:10:38;20.47;;;12.93;;
8058;SDS011;4072;42.668;23.396;2022-11-11T08:13:10;22.30;;;14.37;;
8058;SDS011;4072;42.668;23.396;2022-11-11T08:15:56;22.33;;;13.70;;
8058;SDS011;4072;42.668;23.396;2022-11-11T08:18:24;20.43;;;14.47;;
8058;SDS011;4072;42.668;23.396;2022-11-11T08:20:56;21.47;;;14.70;;
8058;SDS011;4072;42.668;23.396;2022-11-11T08:23:26;19.83;;;14.23;;
8058;SDS011;4072;42.668;23.396;2022-11-11T08:26:19;26.03;;;15.30;;
8058;SDS011;4072;42.668;23.396;2022-11-11T08:28:55;21.70;;;13.93;;
8058;SDS011;4072;42.668;23.396;2022-11-11T08:31:23;22.13;;;16.33;;
8058;SDS011;4072;42.668;23.396;2022-11-11T08:33:52;24.20;;;15.87;;
8058;SDS011;4072;42.668;23.396;2022-11-11T08:36:22;20.23;;;16.27;;
8058;SDS011;4072;42.668;23.396;2022-11-11T08:38:52;19.87;;;14.03;;
8058;SDS011;4072;42.668;23.396;2022-11-11T08:41:20;17.93;;;13.47;;
8058;SDS011;4072;42.668;23.396;2022-11-11T08:43:52;18.77;;;13.40;;
8058;SDS011;4072;42.668;23.396;2022-11-11T08:46:22;23.80;;;13.47;;
8058;SDS011;4072;42.668;23.396;2022-11-11T08:48:51;22.10;;;14.77;;
8058;SDS011;4072;42.668;23.396;2022-11-11T08:51:20;17.17;;;11.93;;
8058;SDS011;4072;42.668;23.396;2022-11-11T08:53:50;18.10;;;13.30;;
8058;SDS011;4072;42.668;23.396;2022-11-11T08:56:18;16.70;;;11.50;;
8058;SDS011;4072;42.668;23.396;2022-11-11T08:58:47;17.50;;;12.87;;
8058;SDS011;4072;42.668;23.396;2022-11-11T09:01:17;17.27;;;12.67;;
8058;SDS011;4072;42.668;23.396;2022-11-11T09:03:45;28.77;;;20.13;;
8058;SDS011;4072;42.668;23.396;2022-11-11T09:06:14;19.23;;;14.07;;
8058;SDS011;4072;42.668;23.396;2022-11-11T09:08:43;20.60;;;13.60;;
8058;SDS011;4072;42.668;23.396;2022-11-11T09:11:13;17.20;;;12.63;;
8058;SDS011;4072;42.668;23.396;2022-11-11T09:13:42;18.10;;;12.80;;
8058;SDS011;4072;42.668;23.396;2022-11-11T09:16:11;16.33;;;11.90;;
8058;SDS011;4072;42.668;23.396;2022-11-11T09:18:41;12.70;;;10.27;;
8058;SDS011;4072;42.668;23.396;2022-11-11T09:21:09;14.47;;;9.07;;
8058;SDS011;4072;42.668;23.396;2022-11-11T09:23:38;14.77;;;11.07;;
8058;SDS011;4072;42.668;23.396;2022-11-11T09:26:06;15.37;;;12.67;;
8058;SDS011;4072;42.668;23.396;2022-11-11T09:28:37;17.13;;;11.23;;
8058;SDS011;4072;42.668;23.396;2022-11-11T09:31:11;17.07;;;11.07;;
8058;SDS011;4072;42.668;23.396;2022-11-11T09:34:01;14.63;;;11.33;;
8058;SDS011;4072;42.668;23.396;2022-11-11T09:36:32;14.40;;;9.83;;
8058;SDS011;4072;42.668;23.396;2022-11-11T09:39:00;13.77;;;9.10;;
8058;SDS011;4072;42.668;23.396;2022-11-11T09:41:32;12.43;;;10.17;;
8058;SDS011;4072;42.668;23.396;2022-11-11T09:44:14;14.30;;;10.23;;
8058;SDS011;4072;42.668;23.396;2022-11-11T09:46:57;10.97;;;8.17;;
8058;SDS011;4072;42.668;23.396;2022-11-11T09:49:35;9.77;;;6.83;;
8058;SDS011;4072;42.668;23.396;2022-11-11T09:52:13;13.13;;;8.33;;
8058;SDS011;4072;42.668;23.396;2022-11-11T09:54:47;13.57;;;8.20;;
8058;SDS011;4072;42.668;23.396;2022-11-11T09:57:21;9.30;;;7.50;;
8058;SDS011;4072;42.668;23.396;2022-11-11T09:59:58;9.67;;;8.53;;
8058;SDS011;4072;42.668;23.396;2022-11-11T10:02:31;10.90;;;8.77;;
8058;SDS011;4072;42.668;23.396;2022-11-11T10:05:07;10.20;;;7.73;;
8058;SDS011;4072;42.668;23.396;2022-11-11T10:07:39;10.40;;;7.60;;
8058;SDS011;4072;42.668;23.396;2022-11-11T10:10:17;12.67;;;9.33;;
8058;SDS011;4072;42.668;23.396;2022-11-11T10:12:52;12.73;;;11.03;;
8058;SDS011;4072;42.668;23.396;2022-11-11T10:15:25;11.53;;;9.13;;
8058;SDS011;4072;42.668;23.396;2022-11-11T10:18:07;13.60;;;10.83;;
8058;SDS011;4072;42.668;23.396;2022-11-11T10:20:44;9.63;;;8.17;;
8058;SDS011;4072;42.668;23.396;2022-11-11T10:23:22;12.40;;;8.00;;
8058;SDS011;4072;42.668;23.396;2022-11-11T10:25:56;12.10;;;8.37;;
8058;SDS011;4072;42.668;23.396;2022-11-11T10:28:31;14.07;;;9.80;;
8058;SDS011;4072;42.668;23.396;2022-11-11T10:31:08;11.30;;;9.37;;
8058;SDS011;4072;42.668;23.396;2022-11-11T10:33:44;12.43;;;9.70;;
8058;SDS011;4072;42.668;23.396;2022-11-11T10:36:18;11.83;;;8.13;;
8058;SDS011;4072;42.668;23.396;2022-11-11T10:38:49;10.77;;;8.67;;
8058;SDS011;4072;42.668;23.396;2022-11-11T10:41:25;10.27;;;7.50;;
8058;SDS011;4072;42.668;23.396;2022-11-11T10:43:57;10.17;;;8.23;;
8058;SDS011;4072;42.668;23.396;2022-11-11T10:46:28;11.13;;;8.93;;
8058;SDS011;4072;42.668;23.396;2022-11-11T10:49:06;9.17;;;6.77;;
8058;SDS011;4072;42.668;23.396;2022-11-11T10:51:41;10.97;;;9.13;;
8058;SDS011;4072;42.668;23.396;2022-11-11T10:54:14;12.63;;;10.67;;
8058;SDS011;4072;42.668;23.396;2022-11-11T10:56:50;10.90;;;9.00;;
8058;SDS011;4072;42.668;23.396;2022-11-11T10:59:28;9.20;;;8.20;;
8058;SDS011;4072;42.668;23.396;2022-11-11T11:02:08;13.77;;;11.57;;
8058;SDS011;4072;42.668;23.396;2022-11-11T11:04:46;12.73;;;8.37;;
8058;SDS011;4072;42.668;23.396;2022-11-11T11:07:21;11.13;;;7.63;;
8058;SDS011;4072;42.668;23.396;2022-11-11T11:09:58;5.57;;;4.47;;
8058;SDS011;4072;42.668;23.396;2022-11-11T11:12:32;9.70;;;7.07;;
8058;SDS011;4072;42.668;23.396;2022-11-11T11:15:07;11.60;;;7.33;;
8058;SDS011;4072;42.668;23.396;2022-11-11T11:17:44;9.73;;;7.90;;
8058;SDS011;4072;42.668;23.396;2022-11-11T11:20:20;10.13;;;6.50;;
8058;SDS011;4072;42.668;23.396;2022-11-11T11:22:49;9.60;;;8.30;;
8058;SDS011;4072;42.668;23.396;2022-11-11T11:25:19;8.87;;;7.40;;
8058;SDS011;4072;42.668;23.396;2022-11-11T11:27:50;7.00;;;6.23;;
8058;SDS011;4072;42.668;23.396;2022-11-11T11:30:20;5.93;;;5.23;;
8058;SDS011;4072;42.668;23.396;2022-11-11T11:32:57;7.53;;;4.87;;
8058;SDS011;4072;42.668;23.396;2022-11-11T11:35:30;7.30;;;5.97;;
8058;SDS011;4072;42.668;23.396;2022-11-11T11:38:01;7.80;;;6.30;;
8058;SDS011;4072;42.668;23.396;2022-11-11T11:40:49;8.90;;;7.20;;
8058;SDS011;4072;42.668;23.396;2022-11-11T11:46:18;8.93;;;7.27;;
8058;SDS011;4072;42.668;23.396;2022-11-11T11:49:01;6.63;;;5.93;;
8058;SDS011;4072;42.668;23.396;2022-11-11T11:51:42;8.17;;;6.33;;
8058;SDS011;4072;42.668;23.396;2022-11-11T11:54:24;5.90;;;5.10;;
8058;SDS011;4072;42.668;23.396;2022-11-11T11:57:07;6.37;;;5.67;;
8058;SDS011;4072;42.668;23.396;2022-11-11T11:59:48;7.23;;;5.33;;
8058;SDS011;4072;42.668;23.396;2022-11-11T12:02:31;8.80;;;6.30;;
8058;SDS011;4072;42.668;23.396;2022-11-11T12:05:16;6.60;;;5.70;;
8058;SDS011;4072;42.668;23.396;2022-11-11T12:07:58;8.37;;;6.87;;
8058;SDS011;4072;42.668;23.396;2022-11-11T12:10:39;7.50;;;5.67;;
8058;SDS011;4072;42.668;23.396;2022-11-11T12:13:16;7.27;;;5.50;;
8058;SDS011;4072;42.668;23.396;2022-11-11T12:15:58;9.17;;;6.17;;
8058;SDS011;4072;42.668;23.396;2022-11-11T12:18:45;8.57;;;6.20;;
8058;SDS011;4072;42.668;23.396;2022-11-11T12:21:23;8.63;;;6.70;;
8058;SDS011;4072;42.668;23.396;2022-11-11T12:24:00;10.67;;;6.27;;
8058;SDS011;4072;42.668;23.396;2022-11-11T12:26:36;7.80;;;6.33;;
8058;SDS011;4072;42.668;23.396;2022-11-11T12:29:17;7.40;;;5.13;;
8058;SDS011;4072;42.668;23.396;2022-11-11T12:31:59;7.00;;;5.73;;
8058;SDS011;4072;42.668;23.396;2022-11-11T12:34:41;12.70;;;6.73;;
8058;SDS011;4072;42.668;23.396;2022-11-11T12:37:33;10.77;;;5.80;;
8058;SDS011;4072;42.668;23.396;2022-11-11T12:40:14;8.23;;;5.77;;
8058;SDS011;4072;42.668;23.396;2022-11-11T12:43:01;6.40;;;5.50;;
8058;SDS011;4072;42.668;23.396;2022-11-11T12:45:40;5.90;;;5.10;;
8058;SDS011;4072;42.668;23.396;2022-11-11T12:48:19;6.23;;;5.57;;
8058;SDS011;4072;42.668;23.396;2022-11-11T12:51:04;6.70;;;5.50;;
8058;SDS011;4072;42.668;23.396;2022-11-11T12:53:45;5.80;;;4.43;;
8058;SDS011;4072;42.668;23.396;2022-11-11T12:56:23;8.30;;;6.00;;
8058;SDS011;4072;42.668;23.396;2022-11-11T12:58:59;9.13;;;5.87;;
8058;SDS011;4072;42.668;23.396;2022-11-11T13:01:37;8.20;;;6.27;;
8058;SDS011;4072;42.668;23.396;2022-11-11T13:10:38;7.20;;;5.80;;
8058;SDS011;4072;42.668;23.396;2022-11-11T13:13:22;8.50;;;5.97;;
8058;SDS011;4072;42.668;23.396;2022-11-11T13:16:05;6.70;;;5.57;;
8058;SDS011;4072;42.668;23.396;2022-11-11T13:18:37;7.00;;;5.57;;
8058;SDS011;4072;42.668;23.396;2022-11-11T13:21:12;6.33;;;5.27;;
8058;SDS011;4072;42.668;23.396;2022-11-11T13:23:44;8.67;;;5.97;;
8058;SDS011;4072;42.668;23.396;2022-11-11T13:26:18;8.67;;;5.10;;
8058;SDS011;4072;42.668;23.396;2022-11-11T13:28:55;9.53;;;7.13;;
8058;SDS011;4072;42.668;23.396;2022-11-11T13:31:40;9.43;;;5.83;;
8058;SDS011;4072;42.668;23.396;2022-11-11T13:34:12;5.83;;;4.97;;
8058;SDS011;4072;42.668;23.396;2022-11-11T13:36:42;6.60;;;5.90;;
8058;SDS011;4072;42.668;23.396;2022-11-11T13:39:20;7.33;;;6.30;;
8058;SDS011;4072;42.668;23.396;2022-11-11T13:41:54;9.57;;;5.17;;
8058;SDS011;4072;42.668;23.396;2022-11-11T13:44:23;7.50;;;5.93;;
8058;SDS011;4072;42.668;23.396;2022-11-11T13:47:00;6.90;;;5.50;;
8058;SDS011;4072;42.668;23.396;2022-11-11T13:49:31;8.80;;;6.30;;
8058;SDS011;4072;42.668;23.396;2022-11-11T13:52:04;8.17;;;6.60;;
8058;SDS011;4072;42.668;23.396;2022-11-11T13:54:54;8.30;;;6.60;;
8058;SDS011;4072;42.668;23.396;2022-11-11T13:57:31;6.93;;;6.10;;
8058;SDS011;4072;42.668;23.396;2022-11-11T14:00:03;9.47;;;7.47;;
8058;SDS011;4072;42.668;23.396;2022-11-11T14:02:34;9.00;;;5.77;;
8058;SDS011;4072;42.668;23.396;2022-11-11T14:05:16;10.73;;;7.67;;
8058;SDS011;4072;42.668;23.396;2022-11-11T14:07:49;8.07;;;6.77;;
8058;SDS011;4072;42.668;23.396;2022-11-11T14:13:38;8.73;;;7.67;;
8058;SDS011;4072;42.668;23.396;2022-11-11T14:16:09;8.73;;;7.10;;
8058;SDS011;4072;42.668;23.396;2022-11-11T14:18:39;11.00;;;7.70;;
8058;SDS011;4072;42.668;23.396;2022-11-11T14:21:10;12.53;;;9.17;;
8058;SDS011;4072;42.668;23.396;2022-11-11T14:23:58;18.40;;;11.70;;
8058;SDS011;4072;42.668;23.396;2022-11-11T14:26:27;12.60;;;8.70;;
8058;SDS011;4072;42.668;23.396;2022-11-11T14:28:58;15.67;;;10.90;;
8058;SDS011;4072;42.668;23.396;2022-11-11T14:31:31;13.27;;;8.97;;
8058;SDS011;4072;42.668;23.396;2022-11-11T14:34:27;15.07;;;8.53;;
8058;SDS011;4072;42.668;23.396;2022-11-11T14:37:14;11.80;;;7.27;;
8058;SDS011;4072;42.668;23.396;2022-11-11T14:39:51;11.60;;;7.27;;
8058;SDS011;4072;42.668;23.396;2022-11-11T14:54:15;7.73;;;6.47;;
8058;SDS011;4072;42.668;23.396;2022-11-11T14:56:53;9.83;;;7.57;;
8058;SDS011;4072;42.668;23.396;2022-11-11T14:59:28;12.77;;;7.77;;
8058;SDS011;4072;42.668;23.396;2022-11-11T15:02:02;11.13;;;7.57;;
8058;SDS011;4072;42.668;23.396;2022-11-11T15:04:46;13.07;;;7.20;;
8058;SDS011;4072;42.668;23.396;2022-11-11T15:07:25;14.07;;;8.00;;
8058;SDS011;4072;42.668;23.396;2022-11-11T15:10:11;13.97;;;8.93;;
8058;SDS011;4072;42.668;23.396;2022-11-11T15:12:56;19.13;;;12.07;;
8058;SDS011;4072;42.668;23.396;2022-11-11T15:15:46;17.37;;;11.23;;
8058;SDS011;4072;42.668;23.396;2022-11-11T15:18:25;16.27;;;11.00;;
8058;SDS011;4072;42.668;23.396;2022-11-11T15:21:12;15.97;;;11.47;;
8058;SDS011;4072;42.668;23.396;2022-11-11T15:23:48;17.13;;;13.03;;
8058;SDS011;4072;42.668;23.396;2022-11-11T15:26:25;15.53;;;11.33;;
8058;SDS011;4072;42.668;23.396;2022-11-11T15:29:06;13.50;;;7.47;;
8058;SDS011;4072;42.668;23.396;2022-11-11T15:31:53;14.77;;;9.83;;
8058;SDS011;4072;42.668;23.396;2022-11-11T15:34:33;14.67;;;9.20;;
8058;SDS011;4072;42.668;23.396;2022-11-11T15:37:10;12.00;;;8.27;;
8058;SDS011;4072;42.668;23.396;2022-11-11T15:39:43;15.97;;;10.33;;
8058;SDS011;4072;42.668;23.396;2022-11-11T15:42:17;12.40;;;9.40;;
8058;SDS011;4072;42.668;23.396;2022-11-11T15:44:55;13.27;;;9.10;;
8058;SDS011;4072;42.668;23.396;2022-11-11T15:47:26;16.83;;;10.53;;